createdAt,value
2022-09-23T00:01:32.912Z,100494.44
2022-09-23T00:03:38.418Z,100510.16
2022-09-23T00:05:41.953Z,100501.16
2022-09-23T00:07:46.020Z,100484.84
2022-09-23T00:09:49.217Z,100499.41
2022-09-23T00:11:52.475Z,100502.75
2022-09-23T00:14:00.998Z,100486.59
2022-09-23T00:16:11.235Z,100488.44
2022-09-23T00:18:20.345Z,100483.75
2022-09-23T00:20:29.945Z,100491.88
2022-09-23T00:22:41.903Z,100502.28
2022-09-23T00:24:45.572Z,100479.47
2022-09-23T00:26:55.106Z,100478.44
2022-09-23T00:28:58.743Z,100468.69
2022-09-23T00:31:14.842Z,100494.56
2022-09-23T00:33:21.553Z,100477.09
2022-09-23T00:35:24.679Z,100489.59
2022-09-23T00:37:32.221Z,100505.97
2022-09-23T00:39:35.740Z,100470.19
2022-09-23T00:41:38.860Z,100496.75
2022-09-23T00:43:57.883Z,100504.91
2022-09-23T00:46:02.124Z,100473.22
2022-09-23T00:48:07.179Z,100506.38
2022-09-23T00:50:40.595Z,100477.38
2022-09-23T00:52:48.534Z,100469.84
2022-09-23T00:54:54.970Z,100476.00
2022-09-23T00:56:59.527Z,100468.31
2022-09-23T00:59:07.157Z,100465.91
2022-09-23T01:01:14.827Z,100490.91
2022-09-23T01:03:18.066Z,100455.00
2022-09-23T01:05:22.722Z,100493.66
2022-09-23T01:07:26.092Z,100494.72
2022-09-23T01:09:32.373Z,100450.25
2022-09-23T01:11:47.273Z,100491.00
2022-09-23T01:14:32.753Z,100451.53
2022-09-23T01:16:57.849Z,100483.69
2022-09-23T01:19:37.118Z,100490.22
2022-09-23T01:21:48.608Z,100454.31
2022-09-23T01:24:06.628Z,100480.31
2022-09-23T01:26:46.445Z,100477.06
2022-09-23T01:29:28.903Z,100454.78
2022-09-23T01:31:44.438Z,100474.47
2022-09-23T01:34:05.517Z,100472.19
2022-09-23T01:36:35.141Z,100476.00
2022-09-23T01:39:06.518Z,100457.91
2022-09-23T01:41:30.984Z,100463.06
2022-09-23T01:43:53.552Z,100462.41
2022-09-23T01:46:00.578Z,100467.84
2022-09-23T01:48:20.999Z,100438.22
2022-09-23T01:50:44.324Z,100433.16
2022-09-23T01:52:49.110Z,100449.31
2022-09-23T01:55:23.205Z,100436.00
2022-09-23T01:58:11.192Z,100436.25
2022-09-23T02:03:04.087Z,100446.38
2022-09-23T02:05:32.721Z,100484.63
2022-09-23T02:08:23.888Z,100476.19
2022-09-23T02:10:37.493Z,100435.63
2022-09-23T02:12:51.298Z,100475.06
2022-09-23T02:15:09.425Z,100435.16
2022-09-23T02:17:19.582Z,100439.84
2022-09-23T02:19:34.218Z,100484.94
2022-09-23T02:21:44.435Z,100444.75
2022-09-23T02:23:58.673Z,100456.28
2022-09-23T02:26:33.130Z,100445.75
2022-09-23T02:29:18.231Z,100443.69
2022-09-23T02:31:56.301Z,100444.50
2022-09-23T02:34:50.237Z,100449.44
2022-09-23T02:37:24.090Z,100439.16
2022-09-23T02:39:51.655Z,100437.09
2022-09-23T02:42:14.268Z,100440.56
2022-09-23T02:44:24.431Z,100441.06
2022-09-23T02:46:29.517Z,100440.53
2022-09-23T02:48:53.904Z,100428.53
2022-09-23T02:50:58.531Z,100471.84
2022-09-23T02:53:04.645Z,100437.19
2022-09-23T02:55:10.989Z,100439.59
2022-09-23T02:57:16.708Z,100443.09
2022-09-23T02:59:34.293Z,100431.66
2022-09-23T03:02:19.158Z,100471.19
2022-09-23T03:05:10.581Z,100469.31
2022-09-23T03:08:12.935Z,100426.50
2022-09-23T03:10:45.793Z,100445.25
2022-09-23T03:13:26.111Z,100464.38
2022-09-23T03:16:08.975Z,100456.41
2022-09-23T03:18:26.370Z,100421.94
2022-09-23T03:21:02.359Z,100459.16
2022-09-23T03:23:12.574Z,100420.03
2022-09-23T03:25:25.274Z,100425.75
2022-09-23T03:27:32.165Z,100418.13
2022-09-23T03:29:36.910Z,100408.19
2022-09-23T03:31:45.092Z,100417.47
2022-09-23T03:33:59.052Z,100423.25
2022-09-23T03:36:10.610Z,100445.59
2022-09-23T03:38:23.837Z,100411.91
2022-09-23T03:40:44.256Z,100404.84
2022-09-23T03:42:52.864Z,100400.72
2022-09-23T03:44:58.569Z,100413.00
2022-09-23T03:47:06.788Z,100450.75
2022-09-23T03:49:34.515Z,100441.31
2022-09-23T03:51:44.501Z,100412.53
2022-09-23T03:53:48.601Z,100414.38
2022-09-23T03:55:52.479Z,100412.53
2022-09-23T03:58:03.469Z,100430.38
2022-09-23T04:00:08.692Z,100412.91
2022-09-23T04:02:15.835Z,100437.91
2022-09-23T04:04:23.443Z,100437.28
2022-09-23T04:06:31.696Z,100405.47
2022-09-23T04:08:37.825Z,100412.47
2022-09-23T04:10:43.505Z,100391.53
2022-09-23T04:13:01.895Z,100397.78
2022-09-23T04:15:13.716Z,100438.78
2022-09-23T04:17:20.643Z,100402.72
2022-09-23T04:19:24.261Z,100400.13
2022-09-23T04:21:27.933Z,100410.06
2022-09-23T04:23:34.361Z,100418.78
2022-09-23T04:25:37.339Z,100400.88
2022-09-23T04:27:39.904Z,100407.66
2022-09-23T04:29:42.900Z,100399.28
2022-09-23T04:31:45.580Z,100405.44
2022-09-23T04:33:48.058Z,100409.13
2022-09-23T04:35:56.354Z,100414.28
2022-09-23T04:37:58.463Z,100413.72
2022-09-23T04:40:00.734Z,100440.50
2022-09-23T04:42:03.396Z,100406.38
2022-09-23T04:44:05.713Z,100404.97
2022-09-23T04:46:11.603Z,100403.72
2022-09-23T04:48:14.108Z,100445.81
2022-09-23T04:50:16.598Z,100442.41
2022-09-23T04:52:18.766Z,100447.66
2022-09-23T04:54:21.455Z,100443.63
2022-09-23T04:56:27.452Z,100448.13
2022-09-23T04:58:29.963Z,100443.72
2022-09-23T05:00:32.418Z,100434.03
2022-09-23T05:02:34.507Z,100445.88
2022-09-23T05:04:36.713Z,100418.75
2022-09-23T05:06:39.594Z,100409.75
2022-09-23T05:09:01.670Z,100407.94
2022-09-23T05:50:04.411Z,100449.56
2022-09-23T06:11:23.836Z,100407.06
2022-09-23T06:13:33.647Z,100408.19
2022-09-23T06:15:42.851Z,100412.28
2022-09-23T06:17:57.477Z,100427.31
2022-09-23T06:20:01.808Z,100414.28
2022-09-23T06:22:10.624Z,100418.06
2022-09-23T06:24:30.988Z,100410.69
2022-09-23T06:37:20.661Z,100425.22
2022-09-23T06:39:50.646Z,100443.53
2022-09-23T06:41:53.436Z,100431.84
2022-09-23T06:43:56.567Z,100456.56
2022-09-23T06:46:02.595Z,100419.84
2022-09-23T06:48:05.759Z,100416.69
2022-09-23T06:50:10.009Z,100424.28
2022-09-23T06:52:13.465Z,100436.75
2022-09-23T06:54:16.023Z,100424.50
2022-09-23T06:56:18.639Z,100416.34
2022-09-23T06:58:21.559Z,100414.81
2022-09-23T07:00:25.084Z,100426.69
2022-09-23T07:02:27.799Z,100428.91
2022-09-23T07:04:30.928Z,100426.53
2022-09-23T07:06:33.183Z,100422.69
2022-09-23T07:08:36.134Z,100426.34
2022-09-23T07:10:38.945Z,100438.06
2022-09-23T07:12:41.544Z,100416.72
2022-09-23T07:14:43.696Z,100439.81
2022-09-23T07:16:49.574Z,100428.28
2022-09-23T07:18:51.827Z,100418.66
2022-09-23T07:20:54.693Z,100428.50
2022-09-23T07:22:57.173Z,100429.81
2022-09-23T07:24:59.471Z,100427.84
2022-09-23T07:27:02.466Z,100424.84
2022-09-23T07:29:05.414Z,100441.53
2022-09-23T07:31:12.481Z,100421.16
2022-09-23T07:33:27.919Z,100434.47
2022-09-23T07:35:34.364Z,100424.22
2022-09-23T07:37:36.660Z,100426.41
2022-09-23T07:39:38.991Z,100428.47
2022-09-23T07:41:42.245Z,100421.84
2022-09-23T07:43:45.804Z,100431.50
2022-09-23T07:45:47.940Z,100427.38
2022-09-23T07:47:50.984Z,100440.31
2022-09-23T07:49:53.427Z,100440.88
2022-09-23T07:51:55.792Z,100456.84
2022-09-23T07:53:58.474Z,100452.56
2022-09-23T07:56:00.690Z,100431.94
2022-09-23T07:58:03.159Z,100432.78
2022-09-23T08:00:06.609Z,100438.50
2022-09-23T08:02:14.071Z,100412.44
2022-09-23T08:04:29.834Z,100438.53
2022-09-23T08:06:33.176Z,100438.75
2022-09-23T08:08:36.615Z,100431.88
2022-09-23T08:10:39.018Z,100408.69
2022-09-23T08:12:42.089Z,100403.94
2022-09-23T08:14:45.222Z,100435.72
2022-09-23T08:16:47.703Z,100419.00
2022-09-23T08:18:50.715Z,100421.25
2022-09-23T08:20:53.937Z,100396.69
2022-09-23T08:22:56.818Z,100390.88
2022-09-23T08:25:02.649Z,100390.72
2022-09-23T08:27:07.510Z,100411.72
2022-09-23T08:29:17.106Z,100390.56
2022-09-23T08:31:24.085Z,100389.41
2022-09-23T08:33:28.352Z,100380.53
2022-09-23T08:35:31.087Z,100387.00
2022-09-23T08:37:52.245Z,100392.13
2022-09-23T08:40:10.127Z,100424.72
2022-09-23T08:42:53.000Z,100382.50
2022-09-23T08:45:06.895Z,100394.28
2022-09-23T08:47:29.833Z,100414.06
2022-09-23T08:49:55.529Z,100394.28
2022-09-23T08:52:37.380Z,100377.81
2022-09-23T08:54:54.580Z,100376.66
2022-09-23T08:57:03.109Z,100381.06
2022-09-23T08:59:25.586Z,100408.75
2022-09-23T09:01:49.125Z,100379.66
2022-09-23T09:03:59.327Z,100377.44
2022-09-23T09:06:20.087Z,100404.00
2022-09-23T09:08:32.528Z,100389.06
2022-09-23T09:10:51.132Z,100386.19
2022-09-23T09:13:09.574Z,100380.50
2022-09-23T09:15:24.337Z,100416.59
2022-09-23T09:17:39.957Z,100382.06
2022-09-23T09:19:58.013Z,100412.75
2022-09-23T09:22:05.216Z,100406.63
2022-09-23T09:24:22.961Z,100400.13
2022-09-23T09:26:33.846Z,100402.63
2022-09-23T09:28:51.787Z,100379.88
2022-09-23T09:31:01.745Z,100376.44
2022-09-23T09:36:18.378Z,100376.00
2022-09-23T09:38:33.270Z,100409.13
2022-09-23T09:40:48.493Z,100373.69
2022-09-23T09:42:54.567Z,100403.00
2022-09-23T09:45:15.910Z,100387.47
2022-09-23T09:48:09.319Z,100405.00
2022-09-23T09:50:50.612Z,100407.38
2022-09-23T09:53:23.639Z,100369.00
2022-09-23T09:55:41.674Z,100384.03
2022-09-23T09:58:06.957Z,100405.69
2022-09-23T10:00:29.169Z,100402.00
2022-09-23T10:02:40.497Z,100363.88
2022-09-23T10:04:45.879Z,100378.59
2022-09-23T10:07:16.105Z,100367.66
2022-09-23T10:09:22.113Z,100370.22
2022-09-23T10:11:28.871Z,100360.78
2022-09-23T10:13:32.392Z,100367.53
2022-09-23T10:15:46.322Z,100398.13
2022-09-23T10:17:52.091Z,100355.84
2022-09-23T10:20:07.509Z,100374.97
2022-09-23T10:22:27.071Z,100371.75
2022-09-23T10:24:32.878Z,100347.19
2022-09-23T10:27:00.472Z,100352.66
2022-09-23T10:29:54.395Z,100376.66
2022-09-23T10:32:42.367Z,100384.91
2022-09-23T10:35:03.484Z,100352.16
2022-09-23T10:37:20.962Z,100331.09
2022-09-23T10:39:49.098Z,100363.31
2022-09-23T10:42:23.828Z,100327.72
2022-09-23T10:45:16.551Z,100327.19
2022-09-23T10:47:52.791Z,100355.88
2022-09-23T10:50:42.227Z,100349.06
2022-09-23T10:53:23.854Z,100347.16
2022-09-23T10:56:11.323Z,100312.16
2022-09-23T10:58:38.176Z,100347.38
2022-09-23T11:01:12.921Z,100313.47
2022-09-23T11:04:58.685Z,100340.38
2022-09-23T11:28:36.921Z,100313.38
2022-09-23T11:31:19.344Z,100295.47
2022-09-23T11:34:00.425Z,100311.59
2022-09-23T11:36:25.657Z,100292.41
2022-09-23T11:38:50.805Z,100264.72
2022-09-23T11:40:59.908Z,100307.13
2022-09-23T11:43:22.387Z,100270.13
2022-09-23T11:45:50.076Z,100285.78
2022-09-23T11:48:19.467Z,100267.94
2022-09-23T11:50:46.255Z,100253.22
2022-09-23T11:53:14.578Z,100276.25
2022-09-23T11:55:37.038Z,100250.34
2022-09-23T11:58:25.596Z,100261.44
2022-09-23T12:00:42.693Z,100265.59
2022-09-23T12:03:42.794Z,100274.66
2022-09-23T12:06:10.772Z,100248.47
2022-09-23T12:08:33.477Z,100239.69
2022-09-23T12:17:26.184Z,100275.31
2022-09-23T12:20:18.963Z,100274.44
2022-09-23T12:23:21.134Z,100266.72
2022-09-23T12:25:46.314Z,100265.88
2022-09-23T12:28:15.752Z,100237.06
2022-09-23T12:30:40.449Z,100253.19
2022-09-23T12:33:23.341Z,100237.47
2022-09-23T12:35:52.472Z,100249.84
2022-09-23T12:38:07.535Z,100221.59
2022-09-23T12:40:49.148Z,100234.75
2022-09-23T12:42:58.006Z,100205.91
2022-09-23T12:45:37.984Z,100236.75
2022-09-23T12:47:45.996Z,100215.47
2022-09-23T12:50:17.107Z,100246.16
2022-09-23T12:52:33.707Z,100199.38
2022-09-23T13:01:46.240Z,100209.97
2022-09-23T13:04:15.537Z,100193.91
2022-09-23T13:07:00.595Z,100225.38
2022-09-23T13:10:00.154Z,100194.03
2022-09-23T13:59:31.745Z,100150.16
2022-09-23T14:01:35.542Z,100164.25
2022-09-23T14:03:40.673Z,100138.59
2022-09-23T14:05:51.771Z,100129.63
2022-09-23T14:07:58.165Z,100134.50
2022-09-23T14:10:01.006Z,100111.88
2022-09-23T14:12:07.629Z,100119.53
2022-09-23T14:14:29.557Z,100151.94
2022-09-23T14:16:41.588Z,100128.13
2022-09-23T14:20:10.041Z,100109.63
2022-09-23T14:22:11.713Z,100109.50
2022-09-23T14:24:42.559Z,100115.59
2022-09-23T14:28:01.263Z,100122.06
2022-09-23T14:30:53.299Z,100110.19
2022-09-23T14:33:06.726Z,100100.63
2022-09-23T14:35:24.204Z,100134.22
2022-09-23T14:37:38.443Z,100139.59
2022-09-23T14:39:41.270Z,100112.72
2022-09-23T14:41:45.852Z,100109.50
2022-09-23T14:44:00.711Z,100107.72
2022-09-23T14:46:03.486Z,100117.34
2022-09-23T14:48:17.630Z,100097.22
2022-09-23T14:50:24.966Z,100091.19
2022-09-23T14:52:28.000Z,100076.81
2022-09-23T14:54:40.373Z,100114.31
2022-09-23T14:56:44.045Z,100098.69
2022-09-23T14:58:54.677Z,100111.59
2022-09-23T15:01:02.938Z,100093.19
2022-09-23T15:03:15.468Z,100088.63
2022-09-23T15:05:24.457Z,100088.28
2022-09-23T15:07:27.030Z,100076.44
2022-09-23T15:09:41.663Z,100085.88
2022-09-23T15:11:44.832Z,100083.19
2022-09-23T15:13:52.318Z,100070.28
2022-09-23T15:15:56.709Z,100075.13
2022-09-23T15:18:20.646Z,100099.53
2022-09-23T15:20:27.516Z,100075.50
2022-09-23T15:22:30.296Z,100086.38
2022-09-23T15:24:41.532Z,100073.44
2022-09-23T15:26:52.665Z,100070.22
2022-09-23T15:28:56.979Z,100067.56
2022-09-23T15:31:00.636Z,100062.50
2022-09-23T15:33:03.695Z,100069.78
2022-09-23T15:35:06.838Z,100087.28
2022-09-23T15:37:11.906Z,100076.69
2022-09-23T15:39:15.604Z,100084.66
2022-09-23T15:41:19.118Z,100091.50
2022-09-23T15:43:25.279Z,100081.56
2022-09-23T15:45:44.960Z,100068.81
2022-09-23T15:47:49.673Z,100047.78
2022-09-23T15:49:52.617Z,100054.88
2022-09-23T15:52:00.455Z,100060.84
2022-09-23T17:03:04.095Z,100050.63
2022-09-23T17:06:27.586Z,100079.38
2022-09-23T17:08:54.010Z,100060.16
2022-09-23T17:11:00.841Z,100041.13
2022-09-23T17:13:03.797Z,100080.19
2022-09-23T17:17:25.729Z,100059.53
2022-09-23T17:19:28.980Z,100063.69
2022-09-23T17:23:54.305Z,100080.88
2022-09-23T17:26:05.245Z,100062.38
2022-09-23T17:28:10.824Z,100049.00
2022-09-23T17:30:13.617Z,100082.38
2022-09-23T17:32:16.257Z,100049.22
2022-09-23T17:34:19.856Z,100067.59
2022-09-23T17:38:40.494Z,100046.88
2022-09-23T17:43:12.385Z,100049.97
2022-09-23T17:45:15.115Z,100066.38
2022-09-23T17:47:18.324Z,100074.41
2022-09-23T17:49:20.841Z,100052.53
2022-09-23T17:51:24.692Z,100076.47
2022-09-23T17:53:31.398Z,100073.63
2022-09-23T17:55:33.648Z,100050.44
2022-09-23T17:57:41.964Z,100053.78
2022-09-23T17:59:45.907Z,100050.00
2022-09-23T18:01:48.408Z,100045.59
2022-09-23T18:03:58.347Z,100067.50
2022-09-23T18:06:14.060Z,100049.22
2022-09-23T18:08:16.613Z,100035.69
2022-09-23T18:10:19.324Z,100052.16
2022-09-23T18:12:22.364Z,100040.38
2022-09-23T18:14:24.772Z,100074.00
2022-09-23T18:16:37.463Z,100030.81
2022-09-23T18:18:41.068Z,100054.34
2022-09-23T18:20:43.987Z,100041.06
2022-09-23T18:22:48.328Z,100063.28
2022-09-23T18:24:53.260Z,100055.09
2022-09-23T18:26:55.798Z,100053.69
2022-09-23T18:28:59.817Z,100053.25
2022-09-23T18:31:03.257Z,100040.75
2022-09-23T18:33:05.698Z,100051.97
2022-09-23T18:35:08.203Z,100063.94
2022-09-23T18:37:15.680Z,100040.41
2022-09-23T18:39:18.705Z,100022.97
2022-09-23T18:41:21.949Z,100042.16
2022-09-23T18:43:37.288Z,100052.81
2022-09-23T18:45:41.950Z,100029.19
2022-09-23T18:47:44.402Z,100045.44
2022-09-23T18:49:47.093Z,100054.41
2022-09-23T18:51:53.175Z,100067.78
2022-09-23T18:54:00.778Z,100048.81
2022-09-23T18:56:19.839Z,100056.41
2022-09-23T18:58:22.201Z,100043.25
2022-09-23T19:00:24.599Z,100069.69
2022-09-23T19:02:29.836Z,100052.38
2022-09-23T19:04:32.248Z,100056.25
2022-09-23T19:06:39.377Z,100063.28
2022-09-23T19:08:45.769Z,100058.47
2022-09-23T19:11:06.111Z,100053.31
2022-09-23T19:13:15.460Z,100075.06
2022-09-23T19:15:47.173Z,100069.94
2022-09-23T19:17:49.582Z,100055.81
2022-09-23T19:20:20.744Z,100068.66
2022-09-23T19:22:46.072Z,100032.59
2022-09-23T19:25:13.085Z,100047.28
2022-09-23T19:27:29.285Z,100027.69
2022-09-23T19:29:31.954Z,100034.94
2022-09-23T19:32:09.135Z,100060.31
2022-09-23T19:34:26.573Z,100041.88
2022-09-23T19:36:40.495Z,100038.94
2022-09-23T19:38:47.442Z,100044.03
2022-09-23T19:40:51.078Z,100031.63
2022-09-23T19:42:53.802Z,100028.53
2022-09-23T19:44:57.279Z,100051.72
2022-09-23T19:47:00.126Z,100021.09
2022-09-23T19:49:03.155Z,100019.28
2022-09-23T19:51:08.918Z,100045.28
2022-09-23T19:53:53.971Z,100048.72
2022-09-23T19:56:19.494Z,100026.94
2022-09-23T19:58:22.505Z,100021.59
2022-09-23T20:00:24.865Z,100026.53
2022-09-23T20:02:28.032Z,100047.97
2022-09-23T20:04:34.298Z,100033.19
2022-09-23T20:06:38.023Z,100025.34
2022-09-23T20:08:42.313Z,100024.91
2022-09-23T20:10:45.012Z,100046.50
2022-09-23T20:12:47.807Z,100035.16
2022-09-23T20:14:50.483Z,100031.66
2022-09-23T20:16:52.751Z,100041.44
2022-09-23T20:18:55.831Z,100029.47
2022-09-23T20:20:58.783Z,100044.44
2022-09-23T20:23:01.478Z,100025.25
2022-09-23T20:25:05.497Z,100035.28
2022-09-23T20:27:08.165Z,100026.31
2022-09-23T20:29:10.978Z,100028.63
2022-09-23T20:31:15.091Z,100024.53
2022-09-23T20:33:20.665Z,100018.75
2022-09-23T20:35:28.235Z,100025.63
2022-09-23T20:37:30.713Z,100027.72
2022-09-23T20:39:33.455Z,100048.66
2022-09-23T20:41:37.155Z,100055.16
2022-09-23T20:43:39.637Z,100030.13
2022-09-23T20:45:50.524Z,100019.56
2022-09-23T20:47:53.067Z,100028.09
2022-09-23T20:49:55.684Z,100043.53
2022-09-23T20:51:58.626Z,100024.69
2022-09-23T20:54:01.481Z,100026.59
2022-09-23T20:56:04.012Z,100022.41
2022-09-23T20:58:08.493Z,100008.34
2022-09-23T21:00:13.674Z,100014.75
2022-09-23T21:02:16.242Z,100012.16
2022-09-23T21:04:18.928Z,100009.81
2022-09-23T21:06:21.202Z,100009.13
2022-09-23T21:08:23.593Z,100018.34
2022-09-23T21:10:26.488Z,99990.88
2022-09-23T21:12:28.737Z,100004.19
2022-09-23T21:14:31.074Z,100021.31
2022-09-23T21:16:34.420Z,99993.06
2022-09-23T21:18:39.174Z,100008.78
2022-09-23T21:20:42.134Z,100013.34
2022-09-23T21:22:45.060Z,100018.28
2022-09-23T21:25:26.313Z,100004.59
2022-09-23T21:27:09.807Z,100037.31
2022-09-23T21:29:12.981Z,100008.09
2022-09-23T21:31:22.268Z,100015.03
2022-09-23T21:33:24.668Z,100006.94
2022-09-23T21:35:27.308Z,100012.94
2022-09-23T21:40:39.651Z,100010.19
2022-09-23T21:42:41.809Z,99998.00
2022-09-23T21:44:43.973Z,100030.44
2022-09-23T21:46:47.239Z,100018.75
2022-09-23T21:48:52.488Z,100013.53
2022-09-23T21:51:06.563Z,100021.31
2022-09-23T21:53:09.022Z,100030.28
2022-09-23T21:55:10.994Z,100029.91
2022-09-23T21:57:13.152Z,100025.81
2022-09-23T21:59:15.986Z,100038.00
2022-09-23T22:01:20.455Z,100030.94
2022-09-23T22:03:23.448Z,100017.63
2022-09-23T22:05:26.518Z,100014.19
2022-09-23T22:07:28.586Z,100037.72
2022-09-23T22:09:31.024Z,100019.63
2022-09-23T22:11:33.700Z,100001.56
2022-09-23T22:13:36.063Z,100011.06
2022-09-23T22:16:04.180Z,100036.88
2022-09-23T22:18:06.830Z,100023.25
2022-09-23T22:20:09.415Z,100026.84
2022-09-23T22:22:15.776Z,100006.75
2022-09-23T22:24:19.280Z,99988.78
2022-09-23T22:26:21.638Z,99991.25
2022-09-23T22:28:23.844Z,100006.88
2022-09-23T22:30:26.576Z,100011.72
2022-09-23T22:32:28.868Z,99997.00
2022-09-23T22:34:48.985Z,99980.78
2022-09-23T22:36:51.941Z,99985.06
2022-09-23T22:38:58.408Z,100006.69
2022-09-23T22:41:01.727Z,99986.59
2022-09-23T22:43:04.549Z,99999.91
2022-09-23T22:45:07.848Z,100008.66
2022-09-23T22:47:10.707Z,100012.28
2022-09-23T22:49:14.262Z,99972.56
2022-09-23T22:51:16.919Z,99975.59
2022-09-23T22:53:19.251Z,99992.72
2022-09-23T22:55:22.021Z,99996.28
2022-09-23T22:57:24.369Z,100003.91
2022-09-23T22:59:26.568Z,100002.38
2022-09-23T23:01:30.582Z,99973.88
2022-09-23T23:03:32.916Z,100006.44
2022-09-23T23:05:35.278Z,99974.91
2022-09-23T23:07:37.881Z,100005.59
2022-09-23T23:09:40.176Z,100003.91
2022-09-23T23:11:43.606Z,99987.69
2022-09-23T23:13:46.125Z,99987.97
2022-09-23T23:15:49.078Z,99978.81
2022-09-23T23:17:52.906Z,99974.78
2022-09-23T23:19:55.500Z,99993.50
2022-09-23T23:21:57.814Z,99984.28
2022-09-23T23:24:00.681Z,99993.88
2022-09-23T23:26:31.085Z,99980.38
2022-09-23T23:28:33.350Z,99970.84
2022-09-23T23:30:35.683Z,99973.91
2022-09-23T23:32:38.872Z,99984.34
2022-09-23T23:34:41.074Z,99958.75
2022-09-23T23:36:44.176Z,99986.34
2022-09-23T23:38:49.464Z,99953.38
2022-09-23T23:40:51.690Z,99967.19
2022-09-23T23:42:53.951Z,99963.16
2022-09-23T23:44:56.813Z,99979.34
2022-09-23T23:46:58.964Z,99976.41
2022-09-23T23:49:01.305Z,99971.03
2022-09-23T23:51:06.762Z,99975.25
2022-09-23T23:53:09.032Z,99949.53
2022-09-23T23:55:11.190Z,99956.16
2022-09-23T23:57:13.823Z,99953.00
2022-09-23T23:59:15.945Z,99965.06
